createdAt,value
2018-11-20T00:05:12.934Z,75.08
2018-11-20T00:10:57.896Z,74.98
2018-11-20T00:16:46.619Z,74.80
2018-11-20T00:22:15.579Z,73.72
2018-11-20T00:27:52.688Z,73.67
2018-11-20T00:33:31.279Z,73.08
2018-11-20T00:39:13.132Z,72.75
2018-11-20T00:44:41.426Z,72.21
2018-11-20T00:50:29.383Z,72.08
2018-11-20T00:56:58.881Z,71.41
2018-11-20T01:02:37.687Z,71.04
2018-11-20T01:08:22.705Z,71.79
2018-11-20T01:14:00.026Z,71.47
2018-11-20T01:19:38.665Z,71.10
2018-11-20T01:25:17.992Z,71.65
2018-11-20T01:31:08.430Z,71.57
2018-11-20T01:36:43.309Z,71.74
2018-11-20T01:42:28.292Z,71.96
2018-11-20T01:48:18.694Z,71.64
2018-11-20T01:53:56.444Z,72.32
2018-11-20T01:59:29.386Z,71.44
2018-11-20T02:05:07.163Z,72.13
2018-11-20T02:10:48.503Z,71.66
2018-11-20T02:16:36.673Z,71.91
2018-11-20T02:22:14.536Z,72.97
2018-11-20T02:27:56.408Z,72.37
2018-11-20T02:33:34.459Z,72.87
2018-11-20T02:39:14.001Z,73.19
2018-11-20T02:44:52.390Z,73.26
2018-11-20T02:50:30.864Z,73.10
2018-11-20T02:56:19.240Z,73.07
2018-11-20T03:02:06.889Z,73.45
2018-11-20T03:08:04.227Z,73.60
2018-11-20T03:13:46.330Z,73.52
2018-11-20T03:19:25.119Z,73.52
2018-11-20T03:25:03.286Z,74.01
2018-11-20T03:31:15.817Z,73.67
2018-11-20T03:37:03.611Z,74.24
2018-11-20T03:42:51.245Z,74.61
2018-11-20T03:48:30.206Z,74.64
2018-11-20T03:54:06.971Z,74.36
2018-11-20T03:59:48.793Z,74.11
2018-11-20T04:05:20.821Z,74.09
2018-11-20T04:10:59.451Z,74.32
2018-11-20T04:16:50.641Z,74.24
2018-11-20T04:22:41.768Z,73.43
2018-11-20T04:28:18.887Z,73.19
2018-11-20T04:34:17.607Z,73.02
2018-11-20T04:39:55.323Z,73.07
2018-11-20T04:45:33.349Z,73.31
2018-11-20T04:51:17.992Z,72.68
2018-11-20T04:57:06.137Z,72.11
2018-11-20T05:02:47.829Z,72.57
2018-11-20T05:08:42.017Z,73.10
2018-11-20T05:14:30.011Z,72.77
2018-11-20T05:20:07.747Z,72.49
2018-11-20T05:25:44.920Z,72.62
2018-11-20T05:31:22.838Z,72.31
2018-11-20T05:36:51.879Z,71.90
2018-11-20T05:42:29.501Z,72.33
2018-11-20T05:48:14.226Z,72.67
2018-11-20T05:53:49.586Z,72.15
2018-11-20T05:59:27.443Z,72.32
2018-11-20T06:05:24.420Z,72.32
2018-11-20T06:11:12.434Z,72.29
2018-11-20T06:16:55.264Z,72.73
2018-11-20T06:22:46.175Z,72.60
2018-11-20T06:28:28.157Z,71.81
2018-11-20T06:34:05.976Z,71.79
2018-11-20T06:39:50.519Z,71.82
2018-11-20T06:45:22.968Z,71.83
2018-11-20T06:51:00.400Z,72.14
2018-11-20T06:56:37.956Z,71.68
2018-11-20T07:02:15.337Z,72.04
2018-11-20T07:07:53.163Z,72.28
2018-11-20T07:13:54.421Z,72.33
2018-11-20T07:19:32.417Z,72.46
2018-11-20T07:25:11.064Z,71.57
2018-11-20T07:30:53.706Z,71.49
2018-11-20T07:36:39.370Z,71.98
2018-11-20T07:42:33.359Z,71.88
2018-11-20T07:48:10.695Z,72.13
2018-11-20T07:53:55.531Z,71.89
2018-11-20T07:59:33.200Z,72.03
2018-11-20T08:05:06.899Z,72.78
2018-11-20T08:10:32.975Z,72.87
2018-11-20T08:16:14.456Z,71.98
2018-11-20T08:21:51.843Z,72.33
2018-11-20T08:27:45.367Z,71.85
2018-11-20T08:33:22.720Z,72.85
2018-11-20T08:39:07.178Z,72.41
2018-11-20T08:44:44.436Z,72.72
2018-11-20T08:50:21.256Z,72.60
2018-11-20T08:55:53.761Z,72.71
2018-11-20T09:01:27.690Z,73.40
2018-11-20T09:07:12.918Z,72.67
2018-11-20T09:12:50.117Z,72.90
2018-11-20T09:18:27.547Z,72.44
2018-11-20T09:24:12.558Z,71.62
2018-11-20T09:29:41.596Z,71.58
2018-11-20T09:35:19.234Z,71.81
2018-11-20T09:41:07.029Z,71.53
2018-11-20T09:46:44.143Z,71.88
2018-11-20T09:52:25.617Z,71.20
2018-11-20T09:57:57.029Z,69.65
2018-11-20T10:03:48.215Z,69.55
2018-11-20T10:09:29.865Z,69.94
2018-11-20T10:15:05.472Z,69.02
2018-11-20T10:20:43.145Z,69.03
2018-11-20T10:26:24.907Z,68.34
2018-11-20T10:32:10.552Z,70.11
2018-11-20T10:37:48.046Z,68.03
2018-11-20T10:43:32.840Z,68.18
2018-11-20T10:49:10.568Z,68.11
2018-11-20T10:54:52.831Z,68.30
2018-11-20T11:00:30.538Z,68.64
2018-11-20T11:06:00.224Z,67.87
2018-11-20T11:11:38.191Z,68.23
2018-11-20T11:17:29.444Z,67.61
2018-11-20T11:23:11.333Z,67.62
2018-11-20T11:28:51.416Z,66.77
2018-11-20T11:34:34.932Z,66.62
2018-11-20T11:40:02.892Z,67.55
2018-11-20T11:45:47.697Z,67.46
2018-11-20T11:51:14.605Z,67.68
2018-11-20T11:56:52.649Z,67.90
2018-11-20T12:08:18.047Z,67.92
2018-11-20T12:13:55.502Z,67.55
2018-11-20T12:19:32.865Z,68.11
2018-11-20T12:25:08.067Z,67.80
2018-11-20T12:30:47.109Z,68.14
2018-11-20T12:36:30.521Z,67.75
2018-11-20T12:42:02.551Z,68.48
2018-11-20T12:47:37.860Z,69.31
2018-11-20T12:53:21.271Z,69.52
2018-11-20T12:58:53.994Z,69.94
2018-11-20T13:04:29.783Z,70.09
2018-11-20T13:10:07.284Z,71.23
2018-11-20T13:15:47.113Z,70.39
2018-11-20T13:21:27.542Z,71.46
2018-11-20T13:27:04.880Z,72.51
2018-11-20T13:32:40.648Z,71.56
2018-11-20T13:38:37.409Z,71.64
2018-11-20T13:44:18.935Z,71.33
2018-11-20T13:49:57.458Z,71.30
2018-11-20T13:55:35.726Z,71.35
2018-11-20T14:01:23.027Z,71.68
2018-11-20T14:07:05.050Z,71.81
2018-11-20T14:13:01.606Z,72.09
2018-11-20T14:18:35.691Z,72.67
2018-11-20T14:24:17.140Z,72.22
2018-11-20T14:29:56.171Z,72.05
2018-11-20T14:35:35.398Z,72.73
2018-11-20T14:41:19.773Z,72.49
2018-11-20T14:47:09.646Z,72.56
2018-11-20T14:53:00.630Z,72.59
2018-11-20T14:58:42.552Z,72.62
2018-11-20T15:04:19.654Z,72.95
2018-11-20T15:10:09.591Z,73.07
2018-11-20T15:15:47.466Z,72.95
2018-11-20T15:21:26.241Z,72.67
2018-11-20T15:27:04.227Z,72.96
2018-11-20T15:32:41.719Z,71.76
2018-11-20T15:38:22.840Z,72.71
2018-11-20T15:44:07.241Z,76.04
2018-11-20T15:49:58.792Z,71.35
2018-11-20T15:55:36.543Z,71.98
2018-11-20T16:01:22.921Z,72.67
2018-11-20T16:07:01.540Z,72.73
2018-11-20T16:12:32.255Z,73.12
2018-11-20T16:18:07.160Z,74.19
2018-11-20T16:23:45.414Z,75.05
2018-11-20T16:29:32.791Z,76.20
2018-11-20T16:35:10.272Z,77.91
2018-11-20T16:40:55.200Z,78.81
2018-11-20T16:46:34.324Z,80.11
2018-11-20T16:52:11.632Z,81.06
2018-11-20T16:57:49.064Z,81.33
2018-11-20T17:03:34.169Z,81.27
2018-11-20T17:09:12.613Z,81.37
2018-11-20T17:15:09.769Z,82.15
2018-11-20T17:20:51.844Z,82.55
2018-11-20T17:26:31.952Z,83.06
2018-11-20T17:32:10.202Z,83.56
2018-11-20T17:37:49.422Z,83.95
2018-11-20T17:43:39.923Z,84.35
2018-11-20T17:49:25.172Z,84.34
2018-11-20T17:55:16.324Z,84.15
2018-11-20T18:00:55.977Z,84.40
2018-11-20T18:06:40.886Z,84.52
2018-11-20T18:12:19.816Z,84.57
2018-11-20T18:18:01.913Z,84.91
2018-11-20T18:23:49.812Z,84.95
2018-11-20T18:29:31.372Z,84.33
2018-11-20T18:35:09.169Z,84.50
2018-11-20T18:40:56.781Z,84.18
2018-11-20T18:46:43.774Z,84.09
2018-11-20T18:52:25.033Z,84.02
2018-11-20T18:58:02.282Z,84.00
2018-11-20T19:03:44.533Z,84.39
2018-11-20T19:09:23.566Z,84.30
2018-11-20T19:15:08.051Z,84.10
2018-11-20T19:20:49.458Z,83.71
2018-11-20T19:26:36.950Z,83.36
2018-11-20T19:32:14.134Z,83.81
2018-11-20T19:37:51.586Z,83.96
2018-11-20T19:43:36.885Z,83.61
2018-11-20T19:49:24.753Z,83.71
2018-11-20T19:55:04.176Z,83.91
2018-11-20T20:07:16.850Z,83.62
2018-11-20T20:12:53.242Z,83.71
2018-11-20T20:18:34.869Z,84.10
2018-11-20T20:24:04.051Z,84.03
2018-11-20T20:29:37.346Z,85.27
2018-11-20T20:35:15.198Z,86.48
2018-11-20T20:41:04.885Z,86.47
2018-11-20T20:46:45.241Z,86.02
2018-11-20T20:52:20.845Z,86.86
2018-11-20T20:58:09.011Z,88.06
2018-11-20T21:03:53.190Z,87.49
2018-11-20T21:09:40.277Z,86.75
2018-11-20T21:15:20.985Z,86.12
2018-11-20T21:20:58.363Z,85.66
2018-11-20T21:26:37.277Z,85.54
2018-11-20T21:32:14.192Z,86.65
2018-11-20T21:37:58.338Z,86.75
2018-11-20T21:43:48.678Z,86.65
2018-11-20T21:49:53.027Z,86.46
2018-11-20T21:55:50.285Z,85.94
2018-11-20T22:01:32.662Z,86.04
2018-11-20T22:07:15.519Z,86.54
2018-11-20T22:12:52.769Z,86.64
2018-11-20T22:18:43.234Z,86.53
2018-11-20T22:24:21.555Z,86.88
2018-11-20T22:29:59.495Z,86.81
2018-11-20T22:35:36.705Z,87.13
2018-11-20T22:41:28.122Z,87.28
2018-11-20T22:47:14.666Z,87.69
2018-11-20T22:52:50.869Z,87.69
2018-11-20T22:58:31.917Z,87.67
2018-11-20T23:04:08.712Z,87.52
2018-11-20T23:09:29.161Z,87.33
2018-11-20T23:14:49.251Z,86.60
2018-11-20T23:20:14.832Z,85.80
2018-11-20T23:25:34.458Z,85.83
2018-11-20T23:30:53.540Z,85.35
2018-11-20T23:36:29.000Z,84.50
2018-11-20T23:41:49.054Z,85.68
2018-11-20T23:47:08.654Z,86.45
2018-11-20T23:52:29.865Z,87.10
2018-11-20T23:57:50.227Z,87.51
